Time;durP1;ratioP1;P1;durP2;ratioP2;P2;SDS_P1;SDS_P2;PMS_P1;PMS_P2;Temp;Humidity;BMP_temperature;BMP_pressure;BME280_temperature;BME280_humidity;BME280_pressure;Samples;Min_cycle;Max_cycle;Signal;HPM_P1;HPM_P2
2021/09/21 00:02:09;;;;;;;5.47;1.90;;;;;;;-149.78;100.00;50158.53;4852819;29;20057;-60
2021/09/21 00:04:36;;;;;;;5.75;1.70;;;;;;;-149.78;100.00;50176.13;4847921;29;20045;-60
2021/09/21 00:07:02;;;;;;;3.50;1.80;;;;;;;-149.78;100.00;50197.66;4845856;29;20050;-60
2021/09/21 00:09:28;;;;;;;4.90;1.83;;;;;;;-149.78;100.00;50189.81;4848402;29;20393;-59
2021/09/21 00:11:53;;;;;;;5.82;1.73;;;;;;;-149.78;100.00;50178.09;4859472;29;20045;-59
2021/09/21 00:14:20;;;;;;;3.30;2.03;;;;;;;-149.78;100.00;50166.34;4850901;29;20073;-60
2021/09/21 00:16:46;;;;;;;7.57;2.40;;;;;;;-149.78;100.00;50174.19;4859981;29;20034;-60
2021/09/21 00:19:12;;;;;;;5.32;1.80;;;;;;;-149.78;100.00;50158.53;4860172;29;20045;-60
2021/09/21 00:21:38;;;;;;;5.35;2.55;;;;;;;-149.78;100.00;50189.81;4846700;29;20065;-60
2021/09/21 00:24:04;;;;;;;7.90;2.47;;;;;;;-149.78;100.00;50178.09;4828711;29;20103;-60
2021/09/21 00:26:30;;;;;;;6.65;2.45;;;;;;;-149.78;100.00;50170.25;4858059;29;20093;-60
2021/09/21 00:28:55;;;;;;;9.23;2.88;;;;;;;-149.78;100.00;50193.72;4860438;29;20514;-59
2021/09/21 00:31:22;;;;;;;6.20;2.50;;;;;;;-149.78;100.00;50162.44;4857815;29;20046;-60
2021/09/21 00:34:21;;;;;;;4.68;2.22;;;;;;;-149.78;100.00;50146.81;4856076;29;20029;-60
2021/09/21 00:36:41;;;;;;;8.75;3.03;;;;;;;-149.78;100.00;50148.75;4856406;29;20196;-59
2021/09/21 00:39:11;;;;;;;7.63;3.00;;;;;;;-149.78;100.00;50219.16;4860037;29;20033;-60
2021/09/21 00:41:39;;;;;;;5.55;2.72;;;;;;;-149.78;100.00;50156.56;4850704;29;20037;-60
2021/09/21 00:44:05;;;;;;;5.88;3.15;;;;;;;-149.78;100.00;50201.56;4860153;29;20203;-59
2021/09/21 00:46:31;;;;;;;8.13;3.08;;;;;;;-149.78;100.00;50142.88;4860242;29;20042;-60
2021/09/21 00:48:57;;;;;;;11.52;5.20;;;;;;;-149.78;100.00;50166.34;4853527;29;20042;-59
2021/09/21 00:51:24;;;;;;;6.20;2.95;;;;;;;-149.78;100.00;50135.06;4860173;29;20049;-60
2021/09/21 00:53:51;;;;;;;10.50;3.35;;;;;;;-149.78;100.00;50178.09;4857026;29;20045;-60
2021/09/21 00:56:17;;;;;;;8.05;3.50;;;;;;;-149.78;100.00;50166.34;4858984;29;20033;-60
2021/09/21 00:58:42;;;;;;;7.68;3.70;;;;;;;-149.78;100.00;50170.25;4858580;29;20435;-60
2021/09/21 01:01:08;;;;;;;7.32;3.67;;;;;;;-149.78;100.00;50131.16;4860689;29;20033;-60
2021/09/21 01:03:34;;;;;;;7.60;3.20;;;;;;;-149.78;100.00;50148.75;4856074;29;20348;-59
2021/09/21 01:05:59;;;;;;;8.88;3.42;;;;;;;-149.78;100.00;50187.88;4856003;29;20512;-59
2021/09/21 01:08:29;;;;;;;11.57;3.50;;;;;;;-149.78;100.00;50127.25;4857281;29;20053;-60
2021/09/21 01:10:55;;;;;;;9.00;3.40;;;;;;;-149.78;100.00;50183.97;4860216;29;20065;-60
2021/09/21 01:13:21;;;;;;;7.75;3.58;;;;;;;-149.78;100.00;50183.97;4852162;29;20049;-60
2021/09/21 01:15:46;;;;;;;7.97;3.38;;;;;;;-149.78;100.00;50138.97;4859374;29;20046;-60
2021/09/21 01:18:12;;;;;;;6.68;3.55;;;;;;;-149.78;100.00;50115.50;4852922;29;20170;-60
2021/09/21 01:20:39;;;;;;;6.45;3.65;;;;;;;-149.78;100.00;50127.25;4858248;29;20529;-60
2021/09/21 01:23:05;;;;;;;5.45;3.38;;;;;;;-149.78;100.00;50154.63;4856067;29;20045;-60
2021/09/21 01:25:33;;;;;;;9.45;3.58;;;;;;;-149.78;100.00;50123.34;4862564;29;20038;-60
2021/09/21 01:27:59;;;;;;;7.20;3.28;;;;;;;-149.78;100.00;50138.97;4853987;29;20052;-60
2021/09/21 01:30:25;;;;;;;8.15;3.53;;;;;;;-149.78;100.00;50129.19;4859597;29;20029;-60
2021/09/21 01:32:51;;;;;;;6.13;3.22;;;;;;;-149.78;100.00;50154.63;4861049;29;20409;-60
2021/09/21 01:35:17;;;;;;;8.43;3.25;;;;;;;-149.78;100.00;50154.63;4860106;29;20045;-60
2021/09/21 01:37:47;;;;;;;10.32;3.92;;;;;;;-149.78;100.00;50160.50;4861670;29;20094;-60
2021/09/21 01:40:12;;;;;;;6.05;2.90;;;;;;;-149.78;100.00;50138.97;4861653;29;20445;-59
2021/09/21 01:42:47;;;;;;;5.72;3.42;;;;;;;-149.78;100.00;50138.97;4866178;29;20041;-60
2021/09/21 01:45:15;;;;;;;9.63;3.70;;;;;;;-149.78;100.00;50152.66;4851090;29;20041;-60
2021/09/21 01:47:41;;;;;;;6.15;3.80;;;;;;;-149.78;100.00;50133.09;4843090;29;20053;-60
2021/09/21 01:52:57;;;;;;;7.68;3.40;;;;;;;-149.78;100.00;50182.00;4847061;29;20061;-60
2021/09/21 01:58:29;;;;;;;8.50;3.80;;;;;;;-149.78;100.00;50129.19;4851693;29;20045;-61
2021/09/21 02:00:56;;;;;;;13.52;4.18;;;;;;;-149.78;100.00;50154.63;4860754;29;20128;-59
2021/09/21 02:03:21;;;;;;;9.88;3.83;;;;;;;-149.78;100.00;50138.97;4861159;29;20029;-60
2021/09/21 02:05:47;;;;;;;7.00;3.63;;;;;;;-149.78;100.00;50140.94;4857852;29;20674;-61
2021/09/21 02:08:13;;;;;;;10.52;3.92;;;;;;;-149.78;100.00;50162.44;4858603;29;20045;-60
2021/09/21 02:10:38;;;;;;;9.05;3.85;;;;;;;-149.78;100.00;50131.16;4860989;29;20401;-60
2021/09/21 02:13:04;;;;;;;10.70;5.63;;;;;;;-149.78;100.00;50146.81;4854978;29;20102;-64
2021/09/21 02:15:32;;;;;;;7.88;4.43;;;;;;;-149.78;100.00;50129.19;4855614;29;20042;-65
2021/09/21 02:18:02;;;;;;;6.93;4.38;;;;;;;-149.78;100.00;50138.97;4860415;29;20049;-64
2021/09/21 02:20:29;;;;;;;9.68;4.10;;;;;;;-149.78;100.00;50156.56;4861855;29;20489;-64
2021/09/21 02:22:55;;;;;;;8.07;4.30;;;;;;;-149.78;100.00;50148.75;4861598;29;20033;-64
2021/09/21 02:25:20;;;;;;;12.75;4.68;;;;;;;-149.78;100.00;50166.34;4861896;29;20041;-64
2021/09/21 02:27:46;;;;;;;12.13;5.07;;;;;;;-149.78;100.00;50123.34;4852916;29;20042;-64
2021/09/21 02:30:12;;;;;;;10.20;4.75;;;;;;;-149.78;100.00;50150.72;4860078;29;20385;-64
2021/09/21 02:32:38;;;;;;;11.20;4.90;;;;;;;-149.78;100.00;50158.53;4842843;29;20041;-64
2021/09/21 02:35:05;;;;;;;9.10;4.47;;;;;;;-149.78;100.00;50138.97;4858748;29;20049;-64
2021/09/21 02:37:31;;;;;;;7.93;4.90;;;;;;;-149.78;100.00;50138.97;4861460;29;20140;-64
2021/09/21 02:39:58;;;;;;;10.10;5.07;;;;;;;-149.78;100.00;50189.81;4861326;29;20379;-64
2021/09/21 02:42:23;;;;;;;9.27;4.28;;;;;;;-149.78;100.00;50121.38;4843940;29;20061;-64
2021/09/21 02:44:49;;;;;;;9.45;4.57;;;;;;;-149.78;100.00;50158.53;4857448;29;20037;-64
2021/09/21 02:47:16;;;;;;;6.47;4.20;;;;;;;-149.78;100.00;50174.19;4859197;29;20548;-64
2021/09/21 02:49:42;;;;;;;8.65;4.35;;;;;;;-149.78;100.00;50148.75;4852033;29;20045;-64
2021/09/21 02:52:07;;;;;;;9.77;4.70;;;;;;;-149.78;100.00;50119.41;4862164;29;20047;-64
2021/09/21 02:54:33;;;;;;;9.32;4.97;;;;;;;-149.78;100.00;50166.34;4856300;29;20033;-64
2021/09/21 02:56:58;;;;;;;8.52;4.88;;;;;;;-149.78;100.00;50135.06;4855368;29;20037;-64
2021/09/21 02:59:24;;;;;;;9.65;5.35;;;;;;;-149.78;100.00;50182.00;4860708;29;20036;-64
2021/09/21 03:01:50;;;;;;;11.63;6.00;;;;;;;-149.78;100.00;50131.16;4855310;29;20120;-64
2021/09/21 03:04:28;;;;;;;10.65;5.88;;;;;;;-149.78;100.00;50152.66;4858864;29;20041;-64
2021/09/21 03:07:03;;;;;;;11.13;5.07;;;;;;;-149.78;100.00;50131.16;4854230;29;20364;-64
2021/09/21 03:13:01;;;;;;;10.13;5.68;;;;;;;-149.78;100.00;50174.19;4860563;29;20065;-64
2021/09/21 03:17:27;;;;;;;12.82;6.13;;;;;;;-149.78;100.00;50150.72;4855586;29;20037;-64
2021/09/21 03:19:59;;;;;;;13.43;6.20;;;;;;;-149.78;100.00;50135.06;4861406;29;20116;-64
2021/09/21 03:22:26;;;;;;;14.95;6.47;;;;;;;-149.78;100.00;50142.88;4859256;29;20041;-64
2021/09/21 03:24:53;;;;;;;16.80;6.78;;;;;;;-149.78;100.00;50170.25;4859971;29;20044;-64
2021/09/21 03:27:20;;;;;;;16.00;7.22;;;;;;;-149.78;100.00;50170.25;4856583;29;20486;-64
2021/09/21 03:29:45;;;;;;;13.15;6.20;;;;;;;-149.78;100.00;50154.63;4854099;29;20038;-64
2021/09/21 03:32:12;;;;;;;14.82;6.90;;;;;;;-149.78;100.00;50178.09;4838143;29;20124;-64
2021/09/21 03:34:38;;;;;;;18.77;7.80;;;;;;;-149.78;100.00;50158.53;4851827;29;20490;-64
2021/09/21 03:37:05;;;;;;;13.93;6.88;;;;;;;-149.78;100.00;50170.25;4852541;29;20540;-64
2021/09/21 03:39:31;;;;;;;15.95;6.68;;;;;;;-149.78;100.00;50138.97;4850800;29;20068;-64
2021/09/21 03:41:57;;;;;;;12.55;7.00;;;;;;;-149.78;100.00;50150.72;4856694;29;20442;-64
2021/09/21 03:44:23;;;;;;;15.00;6.80;;;;;;;-149.78;100.00;50205.47;4858540;29;20037;-64
2021/09/21 03:46:48;;;;;;;18.52;7.57;;;;;;;-149.78;100.00;50185.91;4852724;29;20042;-64
2021/09/21 03:49:15;;;;;;;18.15;7.85;;;;;;;-149.78;100.00;50162.44;4859363;29;20513;-64
2021/09/21 03:51:40;;;;;;;19.08;7.75;;;;;;;-149.78;100.00;50150.72;4860454;29;20695;-64
2021/09/21 03:54:09;;;;;;;16.17;7.85;;;;;;;-149.78;100.00;50138.97;4840140;29;20132;-64
2021/09/21 03:56:36;;;;;;;17.80;7.40;;;;;;;-149.78;100.00;50187.88;4859031;29;20073;-64
2021/09/21 03:59:03;;;;;;;14.18;7.05;;;;;;;-149.78;100.00;50205.47;4860341;29;20381;-65
2021/09/21 04:01:29;;;;;;;19.00;7.97;;;;;;;-149.78;100.00;50172.22;4855704;29;20089;-64
2021/09/21 04:03:55;;;;;;;15.95;6.85;;;;;;;-149.78;100.00;50170.25;4861374;29;20037;-64
2021/09/21 04:06:20;;;;;;;14.85;7.32;;;;;;;-149.78;100.00;50215.25;4842008;29;20382;-64
2021/09/21 04:08:46;;;;;;;13.88;6.93;;;;;;;-149.78;100.00;50174.19;4859986;29;20057;-64
2021/09/21 04:11:11;;;;;;;18.15;8.05;;;;;;;-149.78;100.00;50187.88;4860065;29;20085;-64
2021/09/21 04:13:37;;;;;;;17.48;7.47;;;;;;;-149.78;100.00;50176.13;4854958;29;20050;-64
2021/09/21 04:16:03;;;;;;;17.30;7.25;;;;;;;-149.78;100.00;50187.88;4861554;29;20085;-64
2021/09/21 04:18:29;;;;;;;15.40;7.07;;;;;;;-149.78;100.00;50178.09;4849434;29;20096;-64
2021/09/21 04:20:55;;;;;;;12.93;6.43;;;;;;;-149.78;100.00;50162.44;4847521;29;20049;-64
2021/09/21 04:23:21;;;;;;;14.98;7.00;;;;;;;-149.78;100.00;50197.66;4858842;29;20045;-64
2021/09/21 04:25:48;;;;;;;13.63;7.05;;;;;;;-149.78;100.00;50168.31;4860500;29;20038;-65
2021/09/21 04:28:13;;;;;;;15.88;7.10;;;;;;;-149.78;100.00;50131.16;4857968;29;20067;-64
2021/09/21 04:30:41;;;;;;;14.95;6.70;;;;;;;-149.78;100.00;50158.53;4860608;29;20052;-64
2021/09/21 04:33:06;;;;;;;20.52;6.90;;;;;;;-149.78;100.00;50197.66;4859880;29;20062;-64
2021/09/21 04:35:32;;;;;;;17.27;6.65;;;;;;;-149.78;100.00;50152.66;4857603;29;20129;-64
2021/09/21 04:37:57;;;;;;;13.95;5.93;;;;;;;-149.78;100.00;50135.06;4857569;29;20086;-64
2021/09/21 04:40:23;;;;;;;13.38;6.35;;;;;;;-149.78;100.00;50182.00;4843119;29;20491;-64
2021/09/21 04:42:49;;;;;;;15.10;6.57;;;;;;;-149.78;100.00;50209.38;4857560;29;20479;-64
2021/09/21 04:45:14;;;;;;;17.00;6.70;;;;;;;-149.78;100.00;50178.09;4849331;29;20417;-64
2021/09/21 04:47:40;;;;;;;15.82;6.90;;;;;;;-149.78;100.00;50183.97;4860065;29;20040;-64
2021/09/21 04:50:06;;;;;;;11.88;6.40;;;;;;;-149.78;100.00;50170.25;4851567;29;20462;-64
2021/09/21 04:52:32;;;;;;;12.45;5.97;;;;;;;-149.78;100.00;50166.34;4852554;29;20124;-64
2021/09/21 04:54:57;;;;;;;15.60;6.18;;;;;;;-149.78;100.00;50162.44;4853082;29;20121;-64
2021/09/21 04:57:23;;;;;;;14.00;6.70;;;;;;;-149.78;100.00;50150.72;4852497;29;20045;-64
2021/09/21 04:59:49;;;;;;;11.65;5.88;;;;;;;-149.78;100.00;50182.00;4860493;29;20097;-64
2021/09/21 05:02:14;;;;;;;11.82;6.43;;;;;;;-149.78;100.00;50129.19;4857857;29;20120;-64
2021/09/21 05:04:41;;;;;;;14.13;6.82;;;;;;;-149.78;100.00;50156.56;4858491;29;20500;-64
2021/09/21 05:07:07;;;;;;;16.92;7.35;;;;;;;-149.78;100.00;50174.19;4860032;29;20037;-64
2021/09/21 05:09:32;;;;;;;13.15;6.53;;;;;;;-149.78;100.00;50137.03;4859206;29;20058;-64
2021/09/21 05:11:58;;;;;;;13.23;6.50;;;;;;;-149.78;100.00;50185.91;4859677;29;20081;-64
2021/09/21 05:14:23;;;;;;;15.85;6.90;;;;;;;-149.78;100.00;50189.81;4860506;29;20038;-64
2021/09/21 05:16:49;;;;;;;14.50;6.70;;;;;;;-149.78;100.00;50170.25;4859464;29;20076;-65
2021/09/21 05:19:15;;;;;;;10.00;6.30;;;;;;;-149.78;100.00;50185.91;4836804;29;20117;-64
2021/09/21 05:21:42;;;;;;;12.10;6.07;;;;;;;-149.78;100.00;50154.63;4849893;29;20045;-64
2021/09/21 05:24:08;;;;;;;13.00;5.90;;;;;;;-149.78;100.00;50197.66;4851888;29;20030;-64
2021/09/21 05:26:34;;;;;;;14.73;6.13;;;;;;;-149.78;100.00;50185.91;4846481;29;20057;-64
2021/09/21 05:29:00;;;;;;;16.13;6.50;;;;;;;-149.78;100.00;50138.97;4847405;29;20112;-64
2021/09/21 05:31:26;;;;;;;11.95;6.30;;;;;;;-149.78;100.00;50201.56;4847003;29;20068;-64
2021/09/21 05:33:51;;;;;;;17.02;7.20;;;;;;;-149.78;100.00;50119.41;4854261;29;20061;-65
2021/09/21 05:36:17;;;;;;;13.48;6.97;;;;;;;-149.78;100.00;50185.91;4851489;29;20064;-64
2021/09/21 05:38:43;;;;;;;13.43;6.68;;;;;;;-149.78;100.00;50178.09;4844511;29;20042;-64
2021/09/21 05:41:09;;;;;;;16.95;6.65;;;;;;;-149.78;100.00;50178.09;4832879;29;20478;-65
2021/09/21 05:43:34;;;;;;;13.40;6.93;;;;;;;-149.78;100.00;50182.00;4845683;29;20098;-64
2021/09/21 05:46:01;;;;;;;16.10;7.03;;;;;;;-149.78;100.00;50201.56;4844327;29;20087;-64
2021/09/21 05:48:27;;;;;;;12.70;6.63;;;;;;;-149.78;100.00;50178.09;4844588;29;20046;-64
2021/09/21 05:50:52;;;;;;;14.63;7.35;;;;;;;-149.78;100.00;50168.31;4849671;29;20064;-64
2021/09/21 05:53:19;;;;;;;13.23;7.00;;;;;;;-149.78;100.00;50201.56;4848993;29;20052;-64
2021/09/21 05:55:45;;;;;;;13.27;6.55;;;;;;;-149.78;100.00;50205.47;4843468;29;20475;-64
2021/09/21 05:58:12;;;;;;;14.80;6.80;;;;;;;-149.78;100.00;50178.09;4847831;29;20034;-64
2021/09/21 06:00:38;;;;;;;17.17;7.63;;;;;;;-149.78;100.00;50189.81;4844967;29;20037;-64
2021/09/21 06:03:04;;;;;;;14.13;7.82;;;;;;;-149.78;100.00;50183.97;4843958;29;20037;-64
2021/09/21 06:05:30;;;;;;;14.50;6.93;;;;;;;-149.78;100.00;50138.97;4845917;29;20093;-64
2021/09/21 06:07:55;;;;;;;13.80;7.00;;;;;;;-149.78;100.00;50182.00;4835230;29;20050;-64
2021/09/21 06:10:23;;;;;;;13.55;7.50;;;;;;;-149.78;100.00;50205.47;4835273;29;20042;-64
2021/09/21 06:12:49;;;;;;;16.80;8.27;;;;;;;-149.78;100.00;50199.59;4848913;29;20041;-64
2021/09/21 06:15:16;;;;;;;17.90;8.00;;;;;;;-149.78;100.00;50158.53;4847578;29;20109;-64
2021/09/21 06:17:43;;;;;;;15.43;7.68;;;;;;;-149.78;100.00;50189.81;4846159;29;20494;-64
2021/09/21 06:20:11;;;;;;;16.08;7.45;;;;;;;-149.78;100.00;50201.56;4845448;29;20386;-64
2021/09/21 06:22:38;;;;;;;12.88;7.40;;;;;;;-149.78;100.00;50219.16;4847168;29;20033;-64
2021/09/21 06:25:06;;;;;;;18.85;8.13;;;;;;;-149.78;100.00;50170.25;4853941;29;20038;-63
2021/09/21 06:27:31;;;;;;;15.13;7.68;;;;;;;-149.78;100.00;50203.50;4861646;29;20068;-66
2021/09/21 06:29:57;;;;;;;15.70;7.38;;;;;;;-149.78;100.00;50189.81;4857982;29;20486;-64
2021/09/21 06:32:23;;;;;;;12.38;6.47;;;;;;;-149.78;100.00;50166.34;4862491;29;20037;-65
2021/09/21 06:34:48;;;;;;;14.32;7.43;;;;;;;-149.78;100.00;50180.03;4859561;29;20515;-63
2021/09/21 06:37:14;;;;;;;15.60;7.65;;;;;;;-149.78;100.00;50182.00;4860185;29;20049;-62
2021/09/21 06:39:41;;;;;;;12.80;6.90;;;;;;;-149.78;100.00;50201.56;4844603;29;20374;-63
2021/09/21 06:42:08;;;;;;;18.63;8.02;;;;;;;-149.78;100.00;50185.91;4858684;29;20423;-62
2021/09/21 06:44:34;;;;;;;11.95;6.63;;;;;;;-149.78;100.00;50180.03;4862466;29;20098;-63
2021/09/21 06:47:00;;;;;;;15.65;8.20;;;;;;;-149.78;100.00;50166.34;4859984;29;20034;-63
2021/09/21 06:49:26;;;;;;;14.27;6.05;;;;;;;-149.78;100.00;50154.63;4856145;29;20042;-63
2021/09/21 06:51:52;;;;;;;9.40;5.53;;;;;;;-149.78;100.00;50217.19;4840055;29;20052;-63
2021/09/21 06:54:17;;;;;;;12.38;5.80;;;;;;;-149.78;100.00;50187.88;4839400;29;20037;-63
2021/09/21 06:56:43;;;;;;;12.55;5.82;;;;;;;-149.78;100.00;50197.66;4862164;29;20124;-64
2021/09/21 06:59:08;;;;;;;11.35;5.13;;;;;;;-149.78;100.00;50150.72;4853500;29;20406;-64
2021/09/21 07:01:34;;;;;;;11.68;5.20;;;;;;;-149.78;100.00;50197.66;4857348;29;20042;-64
2021/09/21 07:04:00;;;;;;;8.75;4.57;;;;;;;-149.78;100.00;50187.88;4854272;29;20066;-64
2021/09/21 07:06:25;;;;;;;8.10;4.53;;;;;;;-149.78;100.00;50166.34;4855611;29;20048;-64
2021/09/21 07:08:52;;;;;;;9.15;4.82;;;;;;;-149.78;100.00;50209.38;4854073;29;20094;-64
2021/09/21 07:11:19;;;;;;;11.15;4.60;;;;;;;-149.78;100.00;50160.50;4860874;29;20037;-63
2021/09/21 07:13:45;;;;;;;6.78;4.03;;;;;;;-149.78;100.00;50182.00;4861504;29;20097;-64
2021/09/21 07:16:11;;;;;;;11.45;4.10;;;;;;;-149.78;100.00;50183.97;4844453;29;20029;-64
2021/09/21 07:18:36;;;;;;;7.10;4.10;;;;;;;-149.78;100.00;50166.34;4856104;29;20042;-64
2021/09/21 07:21:02;;;;;;;7.93;3.78;;;;;;;-149.78;100.00;50166.34;4857319;29;20033;-64
2021/09/21 07:23:28;;;;;;;7.38;3.80;;;;;;;-149.78;100.00;50162.44;4857589;29;20049;-63
2021/09/21 07:25:53;;;;;;;10.23;3.97;;;;;;;-149.78;100.00;50166.34;4855712;29;20038;-64
2021/09/21 07:28:22;;;;;;;6.05;3.40;;;;;;;-149.78;100.00;50131.16;4859452;29;20398;-64
2021/09/21 07:30:48;;;;;;;8.70;3.78;;;;;;;-149.78;100.00;50115.50;4855789;29;20046;-64
2021/09/21 07:33:15;;;;;;;7.32;3.17;;;;;;;-149.78;100.00;50111.59;4858210;29;20040;-64
2021/09/21 07:35:42;;;;;;;5.47;2.83;;;;;;;-149.78;100.00;50080.31;4851518;29;20042;-64
2021/09/21 07:38:08;;;;;;;13.75;3.30;;;;;;;-149.78;100.00;50092.03;4856998;29;20040;-64
2021/09/21 07:40:35;;;;;;;7.10;2.60;;;;;;;-149.78;100.00;50052.94;4853709;29;20045;-64
2021/09/21 07:43:02;;;;;;;5.63;2.78;;;;;;;-149.78;100.00;50064.66;4855426;29;20067;-64
2021/09/21 07:45:28;;;;;;;4.88;2.47;;;;;;;-149.78;100.00;50041.19;4858893;29;20233;-63
2021/09/21 07:47:54;;;;;;;10.52;3.10;;;;;;;-149.78;100.00;50074.44;4852011;29;20041;-65
2021/09/21 07:50:20;;;;;;;7.28;3.10;;;;;;;-149.78;100.00;50021.63;4859265;29;20458;-65
2021/09/21 07:52:46;;;;;;;6.35;2.88;;;;;;;-149.78;100.00;50021.63;4840188;29;20097;-65
2021/09/21 07:55:15;;;;;;;9.07;2.80;;;;;;;-149.78;100.00;50013.81;4861130;29;20370;-65
2021/09/21 07:57:41;;;;;;;6.72;2.70;;;;;;;-149.78;100.00;50017.72;4860684;29;20041;-65
2021/09/21 08:00:09;;;;;;;8.02;3.20;;;;;;;-149.78;100.00;50002.09;4860515;29;20033;-66
2021/09/21 08:02:35;;;;;;;8.00;2.80;;;;;;;-149.78;100.00;50017.72;4860143;29;20049;-65
2021/09/21 08:05:00;;;;;;;5.70;2.58;;;;;;;-149.78;82.92;49982.53;4858278;29;20037;-65
2021/09/21 08:07:29;;;;;;;6.07;2.88;;;;;;;-149.78;73.98;49986.44;4860474;29;20489;-65
2021/09/21 08:09:59;;;;;;;3.97;2.50;;;;;;;-149.78;71.28;49972.75;4860627;29;20086;-65
2021/09/21 08:12:29;;;;;;;5.40;2.45;;;;;;;-149.78;70.51;50006.00;4849008;29;20120;-64
2021/09/21 08:14:58;;;;;;;7.38;3.10;;;;;;;-149.78;71.56;50006.00;4855523;29;20421;-65
2021/09/21 08:17:27;;;;;;;7.40;2.72;;;;;;;-149.78;68.02;49994.25;4860475;29;20034;-65
2021/09/21 08:19:54;;;;;;;4.97;2.58;;;;;;;-149.78;68.02;49986.44;4860678;29;20051;-65
2021/09/21 08:22:20;;;;;;;5.07;2.53;;;;;;;-149.78;67.11;49966.88;4849196;29;20030;-64
2021/09/21 08:24:47;;;;;;;8.23;2.80;;;;;;;-149.78;63.46;49974.72;4860510;29;20041;-64
2021/09/21 08:27:13;;;;;;;4.57;2.65;;;;;;;-149.78;63.14;49966.88;4857716;29;20044;-65
2021/09/21 08:29:42;;;;;;;5.43;2.60;;;;;;;-149.78;62.54;49990.34;4855123;29;20038;-66
2021/09/21 08:32:07;;;;;;;5.30;2.80;;;;;;;-149.78;61.72;49947.34;4855869;29;20129;-64
2021/09/21 08:34:34;;;;;;;3.75;2.30;;;;;;;-149.78;60.25;49962.97;4852609;29;20582;-65
2021/09/21 08:37:00;;;;;;;5.97;2.78;;;;;;;-149.78;60.41;49998.19;4848008;29;20046;-65
2021/09/21 08:39:26;;;;;;;6.72;2.60;;;;;;;-149.78;61.50;49994.25;4850861;29;20048;-65
2021/09/21 08:41:52;;;;;;;7.22;2.75;;;;;;;-149.78;61.40;49978.63;4853076;29;20093;-65
2021/09/21 08:44:18;;;;;;;5.10;2.80;;;;;;;-149.78;60.42;49962.97;4860869;29;20037;-65
2021/09/21 08:46:46;;;;;;;4.78;2.53;;;;;;;-149.78;59.63;49974.72;4860289;29;20041;-65
2021/09/21 08:49:13;;;;;;;5.10;2.83;;;;;;;-149.78;59.68;49994.25;4859466;29;20042;-64
2021/09/21 08:51:39;;;;;;;5.57;3.08;;;;;;;-149.78;59.59;50002.09;4853921;29;20117;-64
2021/09/21 08:54:05;;;;;;;5.00;2.80;;;;;;;-149.78;60.65;49982.53;4855642;29;20045;-64
2021/09/21 08:56:31;;;;;;;5.70;2.75;;;;;;;-149.78;59.35;49970.78;4842932;29;20405;-64
2021/09/21 08:59:04;;;;;;;5.07;2.75;;;;;;;-149.78;58.66;49986.44;4860018;29;20109;-64
2021/09/21 09:01:47;;;;;;;4.07;2.60;;;;;;;-149.78;59.03;49990.34;4859812;29;20033;-64
2021/09/21 09:04:16;;;;;;;6.18;3.10;;;;;;;-149.78;58.74;50037.28;4860183;29;20044;-64
2021/09/21 09:06:50;;;;;;;7.10;3.05;;;;;;;-149.78;58.20;49990.34;4858127;29;20125;-64
2021/09/21 09:09:16;;;;;;;6.65;2.90;;;;;;;-149.78;58.11;49980.56;4860864;29;20038;-64
2021/09/21 09:11:46;;;;;;;6.45;2.53;;;;;;;-149.78;57.56;49951.25;4858685;29;20101;-64
2021/09/21 09:14:22;;;;;;;4.85;2.42;;;;;;;-149.78;57.36;49986.44;4860253;29;20436;-64
2021/09/21 09:17:10;;;;;;;5.60;2.75;;;;;;;-149.78;57.21;49970.78;4858080;29;20034;-64
2021/09/21 09:19:43;;;;;;;8.07;2.95;;;;;;;-149.78;58.73;49962.97;4855493;29;20041;-65
2021/09/21 09:22:14;;;;;;;6.32;2.53;;;;;;;-149.78;57.97;49994.25;4854176;29;20408;-65
2021/09/21 09:24:48;;;;;;;8.45;2.92;;;;;;;-149.78;57.75;49974.72;4853175;29;20034;-65
2021/09/21 09:27:48;;;;;;;5.60;2.75;;;;;;;-149.78;59.56;50037.28;4853397;29;20129;-65
2021/09/21 09:30:33;;;;;;;5.38;2.85;;;;;;;-149.78;61.44;49966.88;4848942;29;20053;-66
2021/09/21 09:33:18;;;;;;;5.38;3.38;;;;;;;-149.78;60.72;50009.91;4856818;29;20878;-66
2021/09/21 09:35:45;;;;;;;5.75;2.70;;;;;;;-149.78;59.90;49986.44;4858649;29;20046;-65
2021/09/21 09:38:15;;;;;;;6.75;3.28;;;;;;;-149.78;58.80;49982.53;4840540;29;20069;-65
2021/09/21 09:40:43;;;;;;;8.23;3.45;;;;;;;-149.78;58.86;49984.50;4857221;29;20475;-65
2021/09/21 09:43:09;;;;;;;8.93;2.97;;;;;;;-149.78;58.14;49959.06;4843564;29;20502;-65
2021/09/21 09:45:39;;;;;;;6.45;3.00;;;;;;;-149.78;57.44;49959.06;4862567;29;20042;-65
2021/09/21 09:48:06;;;;;;;5.50;2.70;;;;;;;-149.78;57.71;49970.78;4852661;29;20073;-65
2021/09/21 09:50:34;;;;;;;7.80;2.63;;;;;;;-149.78;57.99;49935.59;4861243;29;20073;-65
2021/09/21 09:53:12;;;;;;;5.40;2.72;;;;;;;-149.78;56.25;49939.50;4868774;29;20048;-65
2021/09/21 09:55:39;;;;;;;5.97;2.92;;;;;;;-149.78;55.63;49962.97;4860737;29;20057;-66
2021/09/21 09:58:06;;;;;;;5.00;2.97;;;;;;;-149.78;56.02;49974.72;4855681;29;20489;-65
2021/09/21 10:00:32;;;;;;;7.97;2.97;;;;;;;-149.78;56.30;49974.72;4863037;29;20093;-65
2021/09/21 10:02:59;;;;;;;6.10;3.20;;;;;;;-149.78;56.22;49968.84;4862574;29;20080;-66
2021/09/21 10:05:41;;;;;;;8.75;3.05;;;;;;;-149.78;57.11;49966.88;4845190;29;20046;-65
2021/09/21 10:08:10;;;;;;;5.18;2.75;;;;;;;-149.78;55.52;49955.16;4854538;29;20465;-65
2021/09/21 10:10:39;;;;;;;7.18;3.13;;;;;;;-149.78;55.36;49978.63;4862219;29;20400;-66
2021/09/21 10:13:11;;;;;;;6.40;2.90;;;;;;;-149.78;56.07;50002.09;4851321;29;20034;-66
2021/09/21 10:15:39;;;;;;;8.10;3.25;;;;;;;-149.78;55.81;49998.19;4852406;29;20038;-66
2021/09/21 10:18:17;;;;;;;7.25;3.00;;;;;;;-149.78;55.63;49962.97;4855428;29;20097;-65
2021/09/21 10:20:45;;;;;;;8.57;3.30;;;;;;;-149.78;56.74;49986.44;4858054;29;20038;-65
2021/09/21 10:23:11;;;;;;;7.20;3.15;;;;;;;-149.78;56.57;49970.78;4860716;29;20037;-66
2021/09/21 10:25:40;;;;;;;9.30;3.13;;;;;;;-149.78;57.27;49982.53;4861066;29;20133;-65
2021/09/21 10:28:13;;;;;;;7.88;3.20;;;;;;;-149.78;55.77;49959.06;4861927;29;20041;-65
2021/09/21 10:30:39;;;;;;;5.60;2.60;;;;;;;-149.78;55.34;49994.25;4863467;29;20072;-65
2021/09/21 10:33:15;;;;;;;4.28;2.58;;;;;;;-149.78;54.39;49961.03;4857240;29;20041;-65
2021/09/21 10:35:45;;;;;;;6.10;2.72;;;;;;;-149.78;53.50;49947.34;4861299;29;20065;-65
2021/09/21 10:38:11;;;;;;;9.75;3.20;;;;;;;-149.78;53.27;49951.25;4836433;29;20053;-66
2021/09/21 10:40:44;;;;;;;6.32;2.60;;;;;;;-149.78;52.65;49949.28;4860825;29;20101;-65
2021/09/21 10:43:30;;;;;;;4.40;2.30;;;;;;;-149.78;51.14;49955.16;4859134;29;21275;-65
2021/09/21 10:46:09;;;;;;;5.78;2.78;;;;;;;-149.78;50.83;49939.50;4861127;29;20053;-66
2021/09/21 10:48:40;;;;;;;9.83;2.67;;;;;;;-149.78;50.25;49904.31;4858977;29;20037;-65
2021/09/21 10:51:08;;;;;;;5.47;2.42;;;;;;;-149.78;50.56;49939.50;4858515;29;20283;-65
2021/09/21 10:53:34;;;;;;;8.20;3.25;;;;;;;-149.78;50.11;49939.50;4859144;29;20062;-65
2021/09/21 10:56:15;;;;;;;6.93;2.80;;;;;;;-149.78;51.04;49955.16;4858854;29;20029;-65
2021/09/21 10:58:57;;;;;;;11.05;3.05;;;;;;;-149.78;52.30;49939.50;4858817;29;20049;-65
2021/09/21 11:01:23;;;;;;;6.68;2.20;;;;;;;-149.78;51.88;49939.50;4830927;29;20479;-66
2021/09/21 11:03:48;;;;;;;4.82;2.80;;;;;;;-149.78;51.42;49962.97;4852772;29;20120;-64
2021/09/21 11:06:15;;;;;;;7.03;3.00;;;;;;;-149.78;51.61;49978.63;4860462;29;20389;-65
2021/09/21 11:08:41;;;;;;;6.00;2.58;;;;;;;-149.78;50.67;49966.88;4861989;29;20045;-64
2021/09/21 11:11:08;;;;;;;6.38;2.78;;;;;;;-149.78;49.96;49986.44;4859959;29;20041;-64
2021/09/21 11:13:36;;;;;;;7.18;3.00;;;;;;;-149.78;50.61;49949.28;4862072;29;20029;-63
2021/09/21 11:16:06;;;;;;;6.22;2.92;;;;;;;-149.78;49.88;49955.16;4860337;29;20567;-63
2021/09/21 11:18:32;;;;;;;7.40;2.00;;;;;;;-149.78;50.54;49970.78;4852428;29;20033;-63
2021/09/21 11:21:01;;;;;;;5.93;2.38;;;;;;;-149.78;49.55;49951.25;4859938;29;20378;-63
2021/09/21 11:23:29;;;;;;;4.97;2.10;;;;;;;-149.78;50.19;49959.06;4861656;29;20089;-63